sensor_id;sensor_type;location;lat;lon;timestamp;pressure;altitude;pressure_sealevel;temperature;humidity
80321;BME280;69633;47.066;15.450;2023-09-30T00:00:44;98150.75;;;15.40;75.36
80321;BME280;69633;47.066;15.450;2023-09-30T00:03:09;98154.97;;;15.41;75.28
80321;BME280;69633;47.066;15.450;2023-09-30T00:05:36;98145.47;;;15.43;75.35
80321;BME280;69633;47.066;15.450;2023-09-30T00:08:03;98147.78;;;15.45;75.01
80321;BME280;69633;47.066;15.450;2023-09-30T00:10:28;98146.84;;;15.37;74.72
80321;BME280;69633;47.066;15.450;2023-09-30T00:12:55;98140.28;;;15.35;75.02
80321;BME280;69633;47.066;15.450;2023-09-30T00:15:21;98147.03;;;15.29;75.38
80321;BME280;69633;47.066;15.450;2023-09-30T00:17:46;98139.84;;;15.17;75.91
80321;BME280;69633;47.066;15.450;2023-09-30T00:20:12;98139.31;;;15.12;75.70
80321;BME280;69633;47.066;15.450;2023-09-30T00:22:40;98137.84;;;14.98;75.97
80321;BME280;69633;47.066;15.450;2023-09-30T00:25:06;98132.22;;;14.88;76.33
80321;BME280;69633;47.066;15.450;2023-09-30T00:27:35;98122.53;;;14.83;76.46
80321;BME280;69633;47.066;15.450;2023-09-30T00:30:00;98123.88;;;14.77;76.82
80321;BME280;69633;47.066;15.450;2023-09-30T00:32:26;98125.81;;;14.77;77.09
80321;BME280;69633;47.066;15.450;2023-09-30T00:34:51;98131.47;;;14.75;76.96
80321;BME280;69633;47.066;15.450;2023-09-30T00:37:17;98123.03;;;14.73;77.12
80321;BME280;69633;47.066;15.450;2023-09-30T00:39:43;98123.03;;;14.73;77.23
80321;BME280;69633;47.066;15.450;2023-09-30T00:42:10;98125.91;;;14.80;76.49
80321;BME280;69633;47.066;15.450;2023-09-30T00:44:35;98130.47;;;14.80;76.92
80321;BME280;69633;47.066;15.450;2023-09-30T00:47:01;98134.56;;;14.77;76.90
80321;BME280;69633;47.066;15.450;2023-09-30T00:49:27;98127.69;;;14.76;77.17
80321;BME280;69633;47.066;15.450;2023-09-30T00:51:54;98130.38;;;14.76;76.81
80321;BME280;69633;47.066;15.450;2023-09-30T00:54:21;98131.66;;;14.82;76.88
80321;BME280;69633;47.066;15.450;2023-09-30T00:56:49;98126.69;;;14.96;76.58
80321;BME280;69633;47.066;15.450;2023-09-30T00:59:16;98132.44;;;15.11;75.73
80321;BME280;69633;47.066;15.450;2023-09-30T01:01:43;98119.66;;;15.20;75.58
80321;BME280;69633;47.066;15.450;2023-09-30T01:04:10;98115.34;;;15.31;75.22
80321;BME280;69633;47.066;15.450;2023-09-30T01:06:36;98125.03;;;15.35;75.07
80321;BME280;69633;47.066;15.450;2023-09-30T01:09:01;98127.63;;;15.32;75.04
80321;BME280;69633;47.066;15.450;2023-09-30T01:11:28;98118.97;;;15.23;74.93
80321;BME280;69633;47.066;15.450;2023-09-30T01:13:53;98125.75;;;15.05;75.49
80321;BME280;69633;47.066;15.450;2023-09-30T01:16:20;98124.03;;;14.96;75.81
80321;BME280;69633;47.066;15.450;2023-09-30T01:18:46;98122.72;;;14.90;76.04
80321;BME280;69633;47.066;15.450;2023-09-30T01:21:12;98128.66;;;14.84;76.41
80321;BME280;69633;47.066;15.450;2023-09-30T01:23:38;98123.41;;;14.87;76.11
80321;BME280;69633;47.066;15.450;2023-09-30T01:26:13;98124.28;;;14.91;76.52
80321;BME280;69633;47.066;15.450;2023-09-30T01:28:40;98115.13;;;14.92;76.29
80321;BME280;69633;47.066;15.450;2023-09-30T01:31:06;98119.41;;;14.81;76.11
80321;BME280;69633;47.066;15.450;2023-09-30T01:33:32;98114.34;;;14.76;76.48
80321;BME280;69633;47.066;15.450;2023-09-30T01:35:59;98109.69;;;14.73;76.50
80321;BME280;69633;47.066;15.450;2023-09-30T01:38:27;98118.81;;;14.72;76.56
80321;BME280;69633;47.066;15.450;2023-09-30T01:40:53;98122.34;;;14.76;76.31
80321;BME280;69633;47.066;15.450;2023-09-30T01:43:19;98121.47;;;14.72;76.53
80321;BME280;69633;47.066;15.450;2023-09-30T01:45:45;98130.19;;;14.69;76.60
80321;BME280;69633;47.066;15.450;2023-09-30T01:48:10;98120.59;;;14.68;76.78
80321;BME280;69633;47.066;15.450;2023-09-30T01:50:39;98121.47;;;14.72;76.49
80321;BME280;69633;47.066;15.450;2023-09-30T01:53:05;98127.69;;;14.76;76.75
80321;BME280;69633;47.066;15.450;2023-09-30T01:55:32;98114.84;;;14.82;75.81
80321;BME280;69633;47.066;15.450;2023-09-30T01:57:58;98109.69;;;14.89;76.44
80321;BME280;69633;47.066;15.450;2023-09-30T02:00:24;98106.00;;;14.93;75.97
80321;BME280;69633;47.066;15.450;2023-09-30T02:02:49;98108.75;;;14.97;75.93
80321;BME280;69633;47.066;15.450;2023-09-30T02:05:15;98106.34;;;14.92;76.60
80321;BME280;69633;47.066;15.450;2023-09-30T02:07:40;98103.78;;;14.95;76.25
80321;BME280;69633;47.066;15.450;2023-09-30T02:10:06;98104.19;;;14.97;75.55
80321;BME280;69633;47.066;15.450;2023-09-30T02:12:32;98112.22;;;14.97;75.52
80321;BME280;69633;47.066;15.450;2023-09-30T02:14:58;98105.03;;;14.86;75.80
80321;BME280;69633;47.066;15.450;2023-09-30T02:17:24;98119.91;;;14.71;76.50
80321;BME280;69633;47.066;15.450;2023-09-30T02:19:49;98122.16;;;14.69;76.27
80321;BME280;69633;47.066;15.450;2023-09-30T02:22:15;98125.16;;;14.68;76.34
80321;BME280;69633;47.066;15.450;2023-09-30T02:24:41;98127.28;;;14.62;76.62
80321;BME280;69633;47.066;15.450;2023-09-30T02:27:06;98126.75;;;14.57;76.94
80321;BME280;69633;47.066;15.450;2023-09-30T02:29:31;98121.75;;;14.55;77.00
80321;BME280;69633;47.066;15.450;2023-09-30T02:31:58;98137.22;;;14.62;77.05
80321;BME280;69633;47.066;15.450;2023-09-30T02:34:23;98128.25;;;14.70;76.69
80321;BME280;69633;47.066;15.450;2023-09-30T02:36:49;98122.97;;;14.85;76.49
80321;BME280;69633;47.066;15.450;2023-09-30T02:39:15;98119.53;;;15.00;75.65
80321;BME280;69633;47.066;15.450;2023-09-30T02:41:42;98120.97;;;15.10;75.40
80321;BME280;69633;47.066;15.450;2023-09-30T02:44:07;98119.31;;;15.21;75.15
80321;BME280;69633;47.066;15.450;2023-09-30T02:46:33;98122.69;;;15.34;74.59
80321;BME280;69633;47.066;15.450;2023-09-30T02:49:00;98114.16;;;15.44;73.85
80321;BME280;69633;47.066;15.450;2023-09-30T02:51:26;98131.28;;;15.55;73.78
80321;BME280;69633;47.066;15.450;2023-09-30T02:53:51;98122.88;;;15.57;73.74
80321;BME280;69633;47.066;15.450;2023-09-30T02:56:17;98131.84;;;15.64;73.45
80321;BME280;69633;47.066;15.450;2023-09-30T02:58:45;98135.84;;;15.70;73.29
80321;BME280;69633;47.066;15.450;2023-09-30T03:01:14;98139.47;;;15.78;72.92
80321;BME280;69633;47.066;15.450;2023-09-30T03:03:42;98132.97;;;15.79;72.76
80321;BME280;69633;47.066;15.450;2023-09-30T03:06:10;98126.16;;;15.81;72.67
80321;BME280;69633;47.066;15.450;2023-09-30T03:08:36;98115.16;;;15.86;72.30
80321;BME280;69633;47.066;15.450;2023-09-30T03:11:01;98116.38;;;15.89;72.09
80321;BME280;69633;47.066;15.450;2023-09-30T03:13:27;98112.31;;;15.95;72.05
80321;BME280;69633;47.066;15.450;2023-09-30T03:15:52;98112.97;;;16.08;72.33
80321;BME280;69633;47.066;15.450;2023-09-30T03:18:18;98110.59;;;16.22;71.70
80321;BME280;69633;47.066;15.450;2023-09-30T03:20:47;98105.31;;;16.25;71.90
80321;BME280;69633;47.066;15.450;2023-09-30T03:23:15;98109.34;;;16.16;71.95
80321;BME280;69633;47.066;15.450;2023-09-30T03:25:41;98107.31;;;16.13;72.16
80321;BME280;69633;47.066;15.450;2023-09-30T03:28:07;98113.88;;;15.96;71.99
80321;BME280;69633;47.066;15.450;2023-09-30T03:30:33;98120.91;;;15.69;72.73
80321;BME280;69633;47.066;15.450;2023-09-30T03:32:58;98118.59;;;15.52;73.07
80321;BME280;69633;47.066;15.450;2023-09-30T03:35:23;98118.94;;;15.51;73.69
80321;BME280;69633;47.066;15.450;2023-09-30T03:37:49;98119.25;;;15.49;73.65
80321;BME280;69633;47.066;15.450;2023-09-30T03:40:15;98119.34;;;15.37;74.09
80321;BME280;69633;47.066;15.450;2023-09-30T03:42:46;98122.69;;;15.34;74.33
80321;BME280;69633;47.066;15.450;2023-09-30T03:45:14;98121.16;;;15.33;74.42
80321;BME280;69633;47.066;15.450;2023-09-30T03:47:41;98120.88;;;15.38;74.43
80321;BME280;69633;47.066;15.450;2023-09-30T03:50:07;98120.19;;;15.41;74.15
80321;BME280;69633;47.066;15.450;2023-09-30T03:52:40;98115.47;;;15.50;74.30
80321;BME280;69633;47.066;15.450;2023-09-30T03:55:12;98118.75;;;15.59;73.59
80321;BME280;69633;47.066;15.450;2023-09-30T03:57:38;98119.41;;;15.72;73.06
80321;BME280;69633;47.066;15.450;2023-09-30T04:00:04;98119.25;;;15.80;72.65
80321;BME280;69633;47.066;15.450;2023-09-30T04:02:36;98112.94;;;15.88;72.35
80321;BME280;69633;47.066;15.450;2023-09-30T04:05:01;98112.38;;;15.99;71.93
80321;BME280;69633;47.066;15.450;2023-09-30T04:07:29;98106.31;;;16.02;72.64
80321;BME280;69633;47.066;15.450;2023-09-30T04:09:55;98122.91;;;16.07;72.01
80321;BME280;69633;47.066;15.450;2023-09-30T04:12:21;98127.50;;;16.07;73.51
80321;BME280;69633;47.066;15.450;2023-09-30T04:14:49;98119.00;;;16.05;72.16
80321;BME280;69633;47.066;15.450;2023-09-30T04:17:15;98117.03;;;16.02;72.60
80321;BME280;69633;47.066;15.450;2023-09-30T04:19:40;98125.44;;;16.00;72.22
80321;BME280;69633;47.066;15.450;2023-09-30T04:22:05;98120.94;;;16.04;72.21
80321;BME280;69633;47.066;15.450;2023-09-30T04:24:31;98134.66;;;16.03;71.97
80321;BME280;69633;47.066;15.450;2023-09-30T04:26:56;98130.00;;;16.00;72.09
80321;BME280;69633;47.066;15.450;2023-09-30T04:29:27;98125.00;;;15.98;72.34
80321;BME280;69633;47.066;15.450;2023-09-30T04:31:55;98120.78;;;15.97;72.37
80321;BME280;69633;47.066;15.450;2023-09-30T04:34:20;98131.28;;;16.06;72.40
80321;BME280;69633;47.066;15.450;2023-09-30T04:36:46;98139.47;;;16.13;72.18
80321;BME280;69633;47.066;15.450;2023-09-30T04:39:13;98144.72;;;16.25;72.11
80321;BME280;69633;47.066;15.450;2023-09-30T04:41:40;98149.88;;;16.33;72.46
80321;BME280;69633;47.066;15.450;2023-09-30T04:44:07;98147.63;;;16.35;72.13
80321;BME280;69633;47.066;15.450;2023-09-30T04:46:36;98149.81;;;16.30;72.61
80321;BME280;69633;47.066;15.450;2023-09-30T04:49:07;98157.06;;;16.29;73.41
80321;BME280;69633;47.066;15.450;2023-09-30T04:51:33;98153.59;;;16.29;73.34
80321;BME280;69633;47.066;15.450;2023-09-30T04:53:59;98161.22;;;16.27;73.22
80321;BME280;69633;47.066;15.450;2023-09-30T04:56:25;98156.13;;;16.22;73.50
80321;BME280;69633;47.066;15.450;2023-09-30T04:58:50;98170.56;;;16.17;73.74
80321;BME280;69633;47.066;15.450;2023-09-30T05:01:16;98174.03;;;16.18;73.94
80321;BME280;69633;47.066;15.450;2023-09-30T05:03:44;98175.59;;;16.19;73.38
80321;BME280;69633;47.066;15.450;2023-09-30T05:06:09;98180.88;;;16.15;73.77
80321;BME280;69633;47.066;15.450;2023-09-30T05:08:35;98180.50;;;16.17;73.78
80321;BME280;69633;47.066;15.450;2023-09-30T05:11:00;98187.91;;;16.23;73.82
80321;BME280;69633;47.066;15.450;2023-09-30T05:13:26;98183.06;;;16.29;73.52
80321;BME280;69633;47.066;15.450;2023-09-30T05:15:52;98172.16;;;16.37;73.00
80321;BME280;69633;47.066;15.450;2023-09-30T05:18:18;98182.38;;;16.32;73.27
80321;BME280;69633;47.066;15.450;2023-09-30T05:20:43;98184.97;;;16.28;73.55
80321;BME280;69633;47.066;15.450;2023-09-30T05:23:09;98190.00;;;16.30;73.30
80321;BME280;69633;47.066;15.450;2023-09-30T05:25:38;98204.75;;;16.39;72.97
80321;BME280;69633;47.066;15.450;2023-09-30T05:28:05;98192.47;;;16.38;72.51
80321;BME280;69633;47.066;15.450;2023-09-30T05:30:32;98180.50;;;16.52;71.81
80321;BME280;69633;47.066;15.450;2023-09-30T05:32:58;98192.75;;;16.68;71.42
80321;BME280;69633;47.066;15.450;2023-09-30T05:35:24;98188.59;;;16.90;70.99
80321;BME280;69633;47.066;15.450;2023-09-30T05:37:50;98198.88;;;17.07;70.21
80321;BME280;69633;47.066;15.450;2023-09-30T05:40:18;98196.13;;;17.23;69.60
80321;BME280;69633;47.066;15.450;2023-09-30T05:42:57;98195.13;;;17.31;69.30
80321;BME280;69633;47.066;15.450;2023-09-30T05:45:26;98196.84;;;17.20;69.99
80321;BME280;69633;47.066;15.450;2023-09-30T05:47:53;98202.84;;;17.13;70.48
80321;BME280;69633;47.066;15.450;2023-09-30T05:50:20;98211.38;;;17.19;70.55
80321;BME280;69633;47.066;15.450;2023-09-30T05:52:53;98213.13;;;17.30;70.33
80321;BME280;69633;47.066;15.450;2023-09-30T05:55:19;98216.00;;;17.41;69.68
80321;BME280;69633;47.066;15.450;2023-09-30T05:57:48;98234.13;;;17.48;70.67
80321;BME280;69633;47.066;15.450;2023-09-30T06:00:15;98219.25;;;17.50;70.95
80321;BME280;69633;47.066;15.450;2023-09-30T06:02:49;98225.44;;;17.54;70.09
80321;BME280;69633;47.066;15.450;2023-09-30T06:05:16;98232.50;;;17.62;69.81
80321;BME280;69633;47.066;15.450;2023-09-30T06:07:44;98236.88;;;17.70;70.08
80321;BME280;69633;47.066;15.450;2023-09-30T06:10:11;98234.69;;;17.76;69.58
80321;BME280;69633;47.066;15.450;2023-09-30T06:12:36;98238.72;;;17.89;69.32
80321;BME280;69633;47.066;15.450;2023-09-30T06:15:02;98233.50;;;18.00;69.19
80321;BME280;69633;47.066;15.450;2023-09-30T06:17:31;98230.06;;;17.99;69.52
80321;BME280;69633;47.066;15.450;2023-09-30T06:19:58;98236.63;;;18.02;69.41
80321;BME280;69633;47.066;15.450;2023-09-30T06:22:32;98240.94;;;18.06;69.82
80321;BME280;69633;47.066;15.450;2023-09-30T06:24:57;98244.13;;;18.15;69.85
80321;BME280;69633;47.066;15.450;2023-09-30T06:27:25;98253.84;;;18.23;69.31
80321;BME280;69633;47.066;15.450;2023-09-30T06:29:51;98249.94;;;18.17;69.41
80321;BME280;69633;47.066;15.450;2023-09-30T06:32:16;98260.63;;;18.14;69.36
80321;BME280;69633;47.066;15.450;2023-09-30T06:34:42;98253.69;;;18.13;69.31
80321;BME280;69633;47.066;15.450;2023-09-30T06:37:08;98254.47;;;18.13;69.26
80321;BME280;69633;47.066;15.450;2023-09-30T06:39:34;98256.78;;;18.15;69.58
80321;BME280;69633;47.066;15.450;2023-09-30T06:41:59;98261.03;;;18.16;69.59
80321;BME280;69633;47.066;15.450;2023-09-30T06:44:25;98255.66;;;18.16;70.09
80321;BME280;69633;47.066;15.450;2023-09-30T06:46:50;98260.31;;;18.19;70.47
80321;BME280;69633;47.066;15.450;2023-09-30T06:49:16;98265.09;;;18.29;70.35
80321;BME280;69633;47.066;15.450;2023-09-30T06:51:42;98260.94;;;18.35;70.98
80321;BME280;69633;47.066;15.450;2023-09-30T06:54:07;98262.63;;;18.43;70.72
80321;BME280;69633;47.066;15.450;2023-09-30T06:56:33;98276.72;;;18.59;71.70
80321;BME280;69633;47.066;15.450;2023-09-30T06:58:58;98284.97;;;18.73;70.31
80321;BME280;69633;47.066;15.450;2023-09-30T07:01:25;98281.69;;;18.87;69.77
80321;BME280;69633;47.066;15.450;2023-09-30T07:03:50;98288.78;;;18.99;69.98
80321;BME280;69633;47.066;15.450;2023-09-30T07:06:25;98279.19;;;19.01;70.54
80321;BME280;69633;47.066;15.450;2023-09-30T07:08:52;98274.19;;;19.00;69.99
80321;BME280;69633;47.066;15.450;2023-09-30T07:11:27;98284.34;;;19.13;70.09
80321;BME280;69633;47.066;15.450;2023-09-30T07:13:53;98276.81;;;19.26;70.18
80321;BME280;69633;47.066;15.450;2023-09-30T07:16:19;98281.53;;;19.36;70.21
80321;BME280;69633;47.066;15.450;2023-09-30T07:18:44;98283.09;;;19.37;69.78
80321;BME280;69633;47.066;15.450;2023-09-30T07:21:10;98280.09;;;19.42;69.95
80321;BME280;69633;47.066;15.450;2023-09-30T07:23:36;98291.75;;;19.53;69.97
80321;BME280;69633;47.066;15.450;2023-09-30T07:26:02;98288.34;;;19.56;68.88
80321;BME280;69633;47.066;15.450;2023-09-30T07:28:28;98288.72;;;19.58;68.74
80321;BME280;69633;47.066;15.450;2023-09-30T07:30:53;98285.66;;;19.56;69.23
80321;BME280;69633;47.066;15.450;2023-09-30T07:33:20;98285.97;;;19.51;69.47
80321;BME280;69633;47.066;15.450;2023-09-30T07:35:45;98290.78;;;19.39;70.63
80321;BME280;69633;47.066;15.450;2023-09-30T07:38:10;98291.56;;;19.39;69.87
80321;BME280;69633;47.066;15.450;2023-09-30T07:40:36;98297.88;;;19.50;69.48
80321;BME280;69633;47.066;15.450;2023-09-30T07:43:01;98305.03;;;19.72;69.29
80321;BME280;69633;47.066;15.450;2023-09-30T07:45:27;98300.63;;;19.91;68.79
80321;BME280;69633;47.066;15.450;2023-09-30T07:47:53;98304.91;;;19.99;68.92
80321;BME280;69633;47.066;15.450;2023-09-30T07:50:19;98302.69;;;20.08;68.47
80321;BME280;69633;47.066;15.450;2023-09-30T07:52:45;98306.28;;;20.22;67.91
80321;BME280;69633;47.066;15.450;2023-09-30T07:55:11;98311.16;;;20.50;66.90
80321;BME280;69633;47.066;15.450;2023-09-30T07:57:37;98309.19;;;20.47;66.65
80321;BME280;69633;47.066;15.450;2023-09-30T08:00:04;98320.41;;;20.49;67.06
80321;BME280;69633;47.066;15.450;2023-09-30T08:02:40;98308.94;;;20.66;66.05
80321;BME280;69633;47.066;15.450;2023-09-30T08:05:06;98310.09;;;20.65;66.53
80321;BME280;69633;47.066;15.450;2023-09-30T08:07:31;98304.78;;;20.76;66.46
80321;BME280;69633;47.066;15.450;2023-09-30T08:09:57;98313.69;;;20.84;65.99
80321;BME280;69633;47.066;15.450;2023-09-30T08:12:23;98309.69;;;20.63;66.40
80321;BME280;69633;47.066;15.450;2023-09-30T08:14:49;98300.13;;;20.69;66.09
80321;BME280;69633;47.066;15.450;2023-09-30T08:17:16;98309.41;;;20.79;66.15
80321;BME280;69633;47.066;15.450;2023-09-30T08:19:43;98302.94;;;20.91;65.44
80321;BME280;69633;47.066;15.450;2023-09-30T08:22:09;98313.75;;;20.98;65.17
80321;BME280;69633;47.066;15.450;2023-09-30T08:24:35;98315.03;;;20.56;65.58
80321;BME280;69633;47.066;15.450;2023-09-30T08:27:01;98306.63;;;20.21;66.24
80321;BME280;69633;47.066;15.450;2023-09-30T08:29:26;98314.41;;;19.86;67.03
80321;BME280;69633;47.066;15.450;2023-09-30T08:31:52;98315.25;;;19.93;67.27
80321;BME280;69633;47.066;15.450;2023-09-30T08:34:17;98308.09;;;20.08;66.88
80321;BME280;69633;47.066;15.450;2023-09-30T08:36:45;98317.09;;;20.26;66.23
80321;BME280;69633;47.066;15.450;2023-09-30T08:39:10;98332.69;;;20.43;65.64
80321;BME280;69633;47.066;15.450;2023-09-30T08:41:36;98329.31;;;20.57;65.38
80321;BME280;69633;47.066;15.450;2023-09-30T08:44:03;98335.16;;;20.66;64.57
80321;BME280;69633;47.066;15.450;2023-09-30T08:46:33;98333.25;;;20.70;64.09
80321;BME280;69633;47.066;15.450;2023-09-30T08:49:03;98326.09;;;20.92;64.02
80321;BME280;69633;47.066;15.450;2023-09-30T08:51:30;98322.31;;;21.07;63.96
80321;BME280;69633;47.066;15.450;2023-09-30T08:53:56;98328.56;;;21.18;63.23
80321;BME280;69633;47.066;15.450;2023-09-30T08:56:27;98326.28;;;21.27;63.38
80321;BME280;69633;47.066;15.450;2023-09-30T08:58:57;98329.31;;;21.22;63.33
80321;BME280;69633;47.066;15.450;2023-09-30T09:01:24;98327.09;;;21.35;62.56
80321;BME280;69633;47.066;15.450;2023-09-30T09:03:49;98322.00;;;21.19;62.85
80321;BME280;69633;47.066;15.450;2023-09-30T09:06:19;98322.41;;;21.21;62.84
80321;BME280;69633;47.066;15.450;2023-09-30T09:08:44;98325.53;;;21.37;62.45
80321;BME280;69633;47.066;15.450;2023-09-30T09:11:10;98331.28;;;21.22;62.49
80321;BME280;69633;47.066;15.450;2023-09-30T09:16:11;98329.31;;;21.15;62.68
80321;BME280;69633;47.066;15.450;2023-09-30T09:18:37;98323.47;;;21.09;62.47
80321;BME280;69633;47.066;15.450;2023-09-30T09:21:19;98324.56;;;21.01;63.11
80321;BME280;69633;47.066;15.450;2023-09-30T09:23:47;98333.31;;;21.49;61.51
80321;BME280;69633;47.066;15.450;2023-09-30T09:28:49;98329.53;;;21.82;60.16
80321;BME280;69633;47.066;15.450;2023-09-30T09:33:48;98317.22;;;21.88;60.19
80321;BME280;69633;47.066;15.450;2023-09-30T09:36:14;98330.41;;;22.07;60.19
80321;BME280;69633;47.066;15.450;2023-09-30T09:38:44;98323.06;;;22.08;60.11
80321;BME280;69633;47.066;15.450;2023-09-30T09:41:10;98319.59;;;22.14;60.04
80321;BME280;69633;47.066;15.450;2023-09-30T09:43:36;98313.78;;;22.09;60.07
80321;BME280;69633;47.066;15.450;2023-09-30T09:46:07;98314.50;;;21.88;60.92
80321;BME280;69633;47.066;15.450;2023-09-30T09:48:35;98308.69;;;21.76;61.15
80321;BME280;69633;47.066;15.450;2023-09-30T09:51:01;98304.44;;;21.75;61.81
80321;BME280;69633;47.066;15.450;2023-09-30T09:53:29;98311.47;;;21.97;61.46
80321;BME280;69633;47.066;15.450;2023-09-30T09:55:56;98310.28;;;22.01;60.77
80321;BME280;69633;47.066;15.450;2023-09-30T09:58:24;98303.75;;;22.27;60.16
80321;BME280;69633;47.066;15.450;2023-09-30T10:00:50;98304.91;;;22.23;59.99
80321;BME280;69633;47.066;15.450;2023-09-30T10:03:17;98308.31;;;21.81;60.88
80321;BME280;69633;47.066;15.450;2023-09-30T10:05:43;98311.34;;;21.58;61.99
80321;BME280;69633;47.066;15.450;2023-09-30T10:08:14;98303.28;;;21.79;61.34
80321;BME280;69633;47.066;15.450;2023-09-30T10:10:43;98306.41;;;21.85;61.22
80321;BME280;69633;47.066;15.450;2023-09-30T10:13:49;98304.47;;;21.89;61.57
80321;BME280;69633;47.066;15.450;2023-09-30T10:21:34;98300.28;;;22.30;59.74
80321;BME280;69633;47.066;15.450;2023-09-30T10:27:27;98306.84;;;22.75;58.25
80321;BME280;69633;47.066;15.450;2023-09-30T10:40:53;98290.09;;;23.12;57.49
80321;BME280;69633;47.066;15.450;2023-09-30T10:45:57;98286.53;;;23.29;57.00
80321;BME280;69633;47.066;15.450;2023-09-30T10:51:11;98282.53;;;23.58;56.29
80321;BME280;69633;47.066;15.450;2023-09-30T10:53:47;98280.66;;;23.52;56.98
80321;BME280;69633;47.066;15.450;2023-09-30T10:56:14;98274.50;;;23.44;56.83
80321;BME280;69633;47.066;15.450;2023-09-30T10:58:50;98276.75;;;23.56;56.69
80321;BME280;69633;47.066;15.450;2023-09-30T11:01:23;98273.13;;;23.77;55.39
80321;BME280;69633;47.066;15.450;2023-09-30T11:03:50;98271.59;;;23.80;55.76
80321;BME280;69633;47.066;15.450;2023-09-30T11:06:20;98273.44;;;23.90;55.54
80321;BME280;69633;47.066;15.450;2023-09-30T11:08:50;98269.81;;;24.07;54.51
80321;BME280;69633;47.066;15.450;2023-09-30T11:11:15;98281.06;;;24.09;54.32
80321;BME280;69633;47.066;15.450;2023-09-30T11:13:41;98272.03;;;24.26;53.91
80321;BME280;69633;47.066;15.450;2023-09-30T11:16:07;98264.84;;;24.50;53.30
80321;BME280;69633;47.066;15.450;2023-09-30T11:18:35;98267.47;;;24.57;52.60
80321;BME280;69633;47.066;15.450;2023-09-30T11:21:12;98261.06;;;24.78;52.14
80321;BME280;69633;47.066;15.450;2023-09-30T11:23:40;98261.59;;;25.03;51.43
80321;BME280;69633;47.066;15.450;2023-09-30T11:26:06;98260.53;;;25.24;50.75
80321;BME280;69633;47.066;15.450;2023-09-30T11:28:40;98266.88;;;25.44;50.41
80321;BME280;69633;47.066;15.450;2023-09-30T11:31:11;98253.06;;;25.62;50.10
80321;BME280;69633;47.066;15.450;2023-09-30T11:33:53;98254.91;;;25.95;48.91
80321;BME280;69633;47.066;15.450;2023-09-30T11:36:22;98242.25;;;26.08;48.57
80321;BME280;69633;47.066;15.450;2023-09-30T11:38:50;98253.50;;;25.83;49.06
80321;BME280;69633;47.066;15.450;2023-09-30T11:41:18;98236.69;;;25.92;48.71
80321;BME280;69633;47.066;15.450;2023-09-30T11:44:06;98234.19;;;25.78;49.72
80321;BME280;69633;47.066;15.450;2023-09-30T11:46:53;98242.50;;;25.37;50.94
80321;BME280;69633;47.066;15.450;2023-09-30T11:51:50;98233.16;;;25.68;50.66
80321;BME280;69633;47.066;15.450;2023-09-30T11:54:16;98228.28;;;25.83;50.78
80321;BME280;69633;47.066;15.450;2023-09-30T11:56:41;98233.78;;;26.03;49.78
80321;BME280;69633;47.066;15.450;2023-09-30T11:59:07;98226.88;;;26.44;48.73
80321;BME280;69633;47.066;15.450;2023-09-30T12:01:36;98231.97;;;26.62;48.37
80321;BME280;69633;47.066;15.450;2023-09-30T12:04:03;98228.50;;;26.81;47.39
80321;BME280;69633;47.066;15.450;2023-09-30T12:06:29;98225.66;;;26.69;47.71
80321;BME280;69633;47.066;15.450;2023-09-30T12:08:54;98214.72;;;27.28;46.34
80321;BME280;69633;47.066;15.450;2023-09-30T12:11:20;98213.00;;;27.54;45.87
80321;BME280;69633;47.066;15.450;2023-09-30T12:13:47;98221.81;;;27.42;46.05
80321;BME280;69633;47.066;15.450;2023-09-30T12:16:16;98224.63;;;27.38;46.01
80321;BME280;69633;47.066;15.450;2023-09-30T12:18:42;98210.69;;;27.16;46.21
80321;BME280;69633;47.066;15.450;2023-09-30T12:21:11;98213.00;;;26.78;47.11
80321;BME280;69633;47.066;15.450;2023-09-30T12:23:39;98216.19;;;26.34;47.94
80321;BME280;69633;47.066;15.450;2023-09-30T12:26:04;98223.16;;;26.12;49.06
80321;BME280;69633;47.066;15.450;2023-09-30T12:28:33;98224.19;;;26.18;49.05
80321;BME280;69633;47.066;15.450;2023-09-30T12:31:00;98232.19;;;26.05;48.87
80321;BME280;69633;47.066;15.450;2023-09-30T12:33:29;98224.63;;;25.93;48.79
80321;BME280;69633;47.066;15.450;2023-09-30T12:35:56;98213.03;;;25.89;48.47
80321;BME280;69633;47.066;15.450;2023-09-30T12:38:22;98217.50;;;25.99;49.02
80321;BME280;69633;47.066;15.450;2023-09-30T12:40:48;98212.47;;;26.24;48.61
80321;BME280;69633;47.066;15.450;2023-09-30T12:43:13;98213.44;;;26.77;46.70
80321;BME280;69633;47.066;15.450;2023-09-30T12:45:39;98205.94;;;27.72;45.31
80321;BME280;69633;47.066;15.450;2023-09-30T12:48:05;98199.59;;;28.40;43.65
80321;BME280;69633;47.066;15.450;2023-09-30T12:50:30;98202.31;;;28.98;42.79
80321;BME280;69633;47.066;15.450;2023-09-30T12:52:56;98202.38;;;29.61;41.18
80321;BME280;69633;47.066;15.450;2023-09-30T12:55:21;98201.25;;;29.96;40.03
80321;BME280;69633;47.066;15.450;2023-09-30T12:57:48;98195.16;;;30.27;39.79
80321;BME280;69633;47.066;15.450;2023-09-30T13:00:13;98198.66;;;30.61;39.44
80321;BME280;69633;47.066;15.450;2023-09-30T13:02:41;98192.59;;;31.10;38.74
80321;BME280;69633;47.066;15.450;2023-09-30T13:05:08;98200.47;;;31.30;38.22
80321;BME280;69633;47.066;15.450;2023-09-30T13:07:34;98194.03;;;31.24;37.28
80321;BME280;69633;47.066;15.450;2023-09-30T13:09:59;98202.50;;;31.07;38.36
80321;BME280;69633;47.066;15.450;2023-09-30T13:12:26;98198.44;;;30.56;39.32
80321;BME280;69633;47.066;15.450;2023-09-30T13:14:52;98193.09;;;30.52;39.34
80321;BME280;69633;47.066;15.450;2023-09-30T13:17:22;98200.75;;;30.57;39.76
80321;BME280;69633;47.066;15.450;2023-09-30T13:19:47;98202.03;;;31.09;38.22
80321;BME280;69633;47.066;15.450;2023-09-30T13:22:13;98203.69;;;31.37;37.57
80321;BME280;69633;47.066;15.450;2023-09-30T13:24:38;98200.00;;;31.53;37.67